A.b. York — WDJ2304 — position and weather

sailwx.info

Track history (hours):
 
Tides and Currents Weather Stations Pressure Air Temp Water Temp Dewpoint Dewpoint Depression Visibility Wind Speed Wind Dir Waves Ship Positions

A.b. York

Owner: Florida Marine, LLC, Mandeville, LA. More information available from US FCC via Universal Licensing System and Coast Guard Vessel Documentation Center.

Last reported at 2018-Jun-17 06:17 UTC. Time now 2018-Jun-24 14:22 UTC.
Position N 32°45' W 091°09'.

Length 37 m; draft 3 m.

Type: Other ship. MMSI: 367757130.

Date/timePositionNaut miles runAvg speedWind from/ knotsBaromVisibWave heightAir tempDewpointWater temp
2018-Jun-17 06:17N 32°45' W 091°09'5 1.5
2018-Jun-17 02:47N 32°40' W 091°07'1 5.3
2018-Jun-17 02:30N 32°40' W 091°08'3 2.9
2018-Jun-17 01:38N 32°37' W 091°09'1 5.4
2018-Jun-17 01:30N 32°37' W 091°09'3 5.0
2018-Jun-17 01:00N 32°35' W 091°07'2 4.5
2018-Jun-17 00:28N 32°32' W 091°06'3 5.3
2018-Jun-17 00:00N 32°30' W 091°07'2 5.0
2018-Jun-16 23:31N 32°28' W 091°06'3 5.1
2018-Jun-16 23:00N 32°26' W 091°03'3 5.0
2018-Jun-16 22:28N 32°25' W 091°00'2 4.2
2018-Jun-16 22:00N 32°24' W 090°60'2 4.6
2018-Jun-16 21:30N 32°21' W 090°60'3 5.1
2018-Jun-16 21:00N 32°21' W 090°57'2 4.7
2018-Jun-16 20:30N 32°20' W 090°54'3 5.8
2018-Jun-16 20:00N 32°17' W 090°56'2 4.7
2018-Jun-16 19:31N 32°16' W 090°58'2 3.0
2018-Jun-16 19:00N 32°14' W 090°59'3 5.2
2018-Jun-16 18:30N 32°12' W 090°59'2 4.2
2018-Jun-16 18:00N 32°10' W 090°60'2 4.5
2018-Jun-16 17:30N 32°08' W 091°01'2 4.5
2018-Jun-16 16:58N 32°08' W 091°04'2 4.8
2018-Jun-16 16:30N 32°08' W 091°06'6 4.8
2018-Jun-16 15:20N 32°03' W 091°04'19 4.5
2018-Jun-16 11:11N 31°51' W 091°21'1 4.9
2018-Jun-16 10:56N 31°50' W 091°21'  
2018-Jun-07 08:31N 30°23' W 086°60'0 5.6
2018-Jun-07 08:30N 30°23' W 086°60'3 5.5
2018-Jun-07 08:00N 30°23' W 086°57'3 5.5
2018-Jun-07 07:30N 30°24' W 086°54'3 5.5
2018-Jun-07 07:00N 30°24' W 086°50'3 5.4
2018-Jun-07 06:30N 30°24' W 086°47'  
Track history (hours):
 
Tides and Currents Weather Stations Pressure Air Temp Water Temp Dewpoint Dewpoint Depression Visibility Wind Speed Wind Dir Waves Ship Positions

A.b. York

Owner: Florida Marine, LLC, Mandeville, LA. More information available from US FCC via Universal Licensing System and Coast Guard Vessel Documentation Center.

Last reported at 2018-Jun-17 06:17 UTC. Time now 2018-Jun-24 14:22 UTC.
Position N 32°45' W 091°09'.

Length 37 m; draft 3 m.

Type: Other ship. MMSI: 367757130.

Date/timePositionNaut miles runAvg speedWind from/ knotsBaromVisibWave heightAir tempDewpointWater temp
2018-Jun-17 06:17N 32°45' W 091°09'5 1.5
2018-Jun-17 02:47N 32°40' W 091°07'1 5.3
2018-Jun-17 02:30N 32°40' W 091°08'3 2.9
2018-Jun-17 01:38N 32°37' W 091°09'1 5.4
2018-Jun-17 01:30N 32°37' W 091°09'3 5.0
2018-Jun-17 01:00N 32°35' W 091°07'2 4.5
2018-Jun-17 00:28N 32°32' W 091°06'3 5.3
2018-Jun-17 00:00N 32°30' W 091°07'2 5.0
2018-Jun-16 23:31N 32°28' W 091°06'3 5.1
2018-Jun-16 23:00N 32°26' W 091°03'3 5.0
2018-Jun-16 22:28N 32°25' W 091°00'2 4.2
2018-Jun-16 22:00N 32°24' W 090°60'2 4.6
2018-Jun-16 21:30N 32°21' W 090°60'3 5.1
2018-Jun-16 21:00N 32°21' W 090°57'2 4.7
2018-Jun-16 20:30N 32°20' W 090°54'3 5.8
2018-Jun-16 20:00N 32°17' W 090°56'2 4.7
2018-Jun-16 19:31N 32°16' W 090°58'2 3.0
2018-Jun-16 19:00N 32°14' W 090°59'3 5.2
2018-Jun-16 18:30N 32°12' W 090°59'2 4.2
2018-Jun-16 18:00N 32°10' W 090°60'2 4.5
2018-Jun-16 17:30N 32°08' W 091°01'2 4.5
2018-Jun-16 16:58N 32°08' W 091°04'2 4.8
2018-Jun-16 16:30N 32°08' W 091°06'6 4.8
2018-Jun-16 15:20N 32°03' W 091°04'19 4.5
2018-Jun-16 11:11N 31°51' W 091°21'1 4.9
2018-Jun-16 10:56N 31°50' W 091°21'  
2018-Jun-07 08:31N 30°23' W 086°60'0 5.6
2018-Jun-07 08:30N 30°23' W 086°60'3 5.5
2018-Jun-07 08:00N 30°23' W 086°57'3 5.5
2018-Jun-07 07:30N 30°24' W 086°54'3 5.5
2018-Jun-07 07:00N 30°24' W 086°50'3 5.4
2018-Jun-07 06:30N 30°24' W 086°47'  

Dump ship's entire track history